createdAt,value
2022-08-19T00:00:45.429Z,9.68
2022-08-19T00:03:47.992Z,10.32
2022-08-19T00:06:52.565Z,7.93
2022-08-19T00:09:56.789Z,8.23
2022-08-19T00:12:59.975Z,10.23
2022-08-19T00:16:02.688Z,10.38
2022-08-19T00:19:05.673Z,8.60
2022-08-19T00:22:10.153Z,9.98
2022-08-19T00:25:13.607Z,10.75
2022-08-19T00:28:18.376Z,10.25
2022-08-19T00:31:21.712Z,9.00
2022-08-19T00:34:24.746Z,8.90
2022-08-19T00:37:28.536Z,7.95
2022-08-19T00:40:31.715Z,9.15
2022-08-19T00:43:34.840Z,8.20
2022-08-19T00:46:39.826Z,9.02
2022-08-19T00:49:51.403Z,8.00
2022-08-19T00:56:01.210Z,10.57
2022-08-19T00:59:09.409Z,9.10
2022-08-19T01:02:11.882Z,6.90
2022-08-19T01:05:19.420Z,7.15
2022-08-19T01:08:23.841Z,7.20
2022-08-19T01:11:27.190Z,9.07
2022-08-19T01:14:30.124Z,8.20
2022-08-19T01:17:33.135Z,8.40
2022-08-19T01:20:36.309Z,7.88
2022-08-19T01:23:47.397Z,8.38
2022-08-19T01:26:50.015Z,9.60
2022-08-19T01:29:53.076Z,10.88
2022-08-19T01:32:56.701Z,8.32
2022-08-19T01:36:06.328Z,7.35
2022-08-19T01:39:14.391Z,8.55
2022-08-19T01:42:16.835Z,7.63
2022-08-19T01:45:20.624Z,9.63
2022-08-19T01:48:23.722Z,8.82
2022-08-19T01:51:26.480Z,7.60
2022-08-19T01:54:32.172Z,8.80
2022-08-19T01:57:35.036Z,9.30
2022-08-19T02:00:38.227Z,9.05
2022-08-19T02:03:40.652Z,8.80
2022-08-19T02:06:43.095Z,8.65
2022-08-19T02:09:46.822Z,9.05
2022-08-19T02:12:51.270Z,8.95
2022-08-19T02:15:54.938Z,12.60
2022-08-19T02:18:57.378Z,8.70
2022-08-19T02:22:00.016Z,8.60
2022-08-19T02:25:05.806Z,8.48
2022-08-19T02:28:09.057Z,9.80
2022-08-19T02:31:12.305Z,8.80
2022-08-19T02:34:14.906Z,9.45
2022-08-19T02:37:31.342Z,7.15
2022-08-19T02:40:38.958Z,9.18
2022-08-19T02:43:48.923Z,11.23
2022-08-19T02:47:04.962Z,8.38
2022-08-19T02:50:08.420Z,11.45
2022-08-19T02:53:11.105Z,9.25
2022-08-19T02:56:17.155Z,8.90
2022-08-19T02:59:22.965Z,11.77
2022-08-19T03:02:25.745Z,12.15
2022-08-19T03:05:48.031Z,9.30
2022-08-19T03:08:52.003Z,10.52
2022-08-19T03:11:55.874Z,13.05
2022-08-19T03:14:58.635Z,10.18
2022-08-19T03:18:01.106Z,10.43
2022-08-19T03:21:05.391Z,10.93
2022-08-19T03:24:10.847Z,13.00
2022-08-19T03:27:15.117Z,12.88
2022-08-19T03:30:20.492Z,12.90
2022-08-19T03:33:28.739Z,11.57
2022-08-19T03:36:31.470Z,14.50
2022-08-19T03:39:34.019Z,11.93
2022-08-19T03:42:48.946Z,13.27
2022-08-19T03:46:01.957Z,13.98
2022-08-19T03:49:08.324Z,13.82
2022-08-19T03:52:10.813Z,16.27
2022-08-19T03:55:13.315Z,13.32
2022-08-19T03:58:17.115Z,14.88
2022-08-19T04:01:21.459Z,12.60
2022-08-19T04:04:38.618Z,14.02
2022-08-19T04:07:41.082Z,14.93
2022-08-19T04:10:43.559Z,17.67
2022-08-19T04:13:47.343Z,14.52
2022-08-19T04:16:50.540Z,12.88
2022-08-19T04:19:53.053Z,14.05
2022-08-19T04:22:55.561Z,15.90
2022-08-19T04:25:58.468Z,16.80
2022-08-19T04:29:09.208Z,15.68
2022-08-19T04:32:16.398Z,19.75
2022-08-19T04:35:22.039Z,15.93
2022-08-19T04:38:27.098Z,15.80
2022-08-19T04:41:47.253Z,15.70
2022-08-19T04:44:51.725Z,17.30
2022-08-19T04:48:19.831Z,19.00
2022-08-19T04:51:21.613Z,14.70
2022-08-19T04:54:37.796Z,16.95
2022-08-19T04:57:41.528Z,16.55
2022-08-19T05:00:45.622Z,16.85
2022-08-19T05:03:48.306Z,17.33
2022-08-19T05:06:53.167Z,17.70
2022-08-19T05:10:01.950Z,17.75
2022-08-19T05:13:04.549Z,19.52
2022-08-19T05:16:08.621Z,18.38
2022-08-19T05:19:28.692Z,18.58
2022-08-19T05:22:36.432Z,18.08
2022-08-19T05:25:41.790Z,18.73
2022-08-19T05:28:44.289Z,22.23
2022-08-19T05:31:50.188Z,21.33
2022-08-19T05:34:52.809Z,21.73
2022-08-19T05:37:59.011Z,22.50
2022-08-19T05:41:01.745Z,28.75
2022-08-19T05:44:07.389Z,29.80
2022-08-19T05:47:13.398Z,28.25
2022-08-19T05:50:15.944Z,30.00
2022-08-19T05:53:18.671Z,31.63
2022-08-19T05:56:21.542Z,31.88
2022-08-19T05:59:24.983Z,33.13
2022-08-19T06:02:29.342Z,33.67
2022-08-19T06:05:32.553Z,34.03
2022-08-19T06:08:51.676Z,35.70
2022-08-19T06:11:56.816Z,36.65
2022-08-19T06:15:00.767Z,36.83
2022-08-19T06:18:05.622Z,31.73
2022-08-19T06:21:08.098Z,31.23
2022-08-19T06:24:13.339Z,31.55
2022-08-19T06:27:16.925Z,30.40
2022-08-19T06:30:19.491Z,28.40
2022-08-19T06:33:23.306Z,24.60
2022-08-19T06:36:32.654Z,26.45
2022-08-19T06:39:39.101Z,20.63
2022-08-19T06:42:53.007Z,17.90
2022-08-19T06:45:57.098Z,16.35
2022-08-19T06:49:03.057Z,16.17
2022-08-19T06:52:06.430Z,15.05
2022-08-19T06:55:09.723Z,16.20
2022-08-19T06:58:12.186Z,15.68
2022-08-19T07:01:14.914Z,16.05
2022-08-19T07:04:21.985Z,14.00
2022-08-19T07:07:24.457Z,13.88
2022-08-19T07:10:27.125Z,14.43
2022-08-19T07:13:29.587Z,16.13
2022-08-19T07:16:32.803Z,13.82
2022-08-19T07:19:37.571Z,16.00
2022-08-19T07:22:41.169Z,14.73
2022-08-19T07:25:44.604Z,19.05
2022-08-19T07:28:51.545Z,15.75
2022-08-19T07:31:57.802Z,14.68
2022-08-19T07:35:05.585Z,14.77
2022-08-19T07:38:08.419Z,17.60
2022-08-19T07:41:12.879Z,18.75
2022-08-19T07:44:17.111Z,15.48
2022-08-19T07:47:47.395Z,13.73
2022-08-19T07:50:44.207Z,16.98
2022-08-19T07:53:47.095Z,14.70
2022-08-19T07:56:51.014Z,13.02
2022-08-19T07:59:55.413Z,15.25
2022-08-19T08:02:58.020Z,14.07
2022-08-19T08:06:31.085Z,15.20
2022-08-19T08:09:39.394Z,13.93
2022-08-19T08:12:42.678Z,13.98
2022-08-19T08:15:46.010Z,17.08
2022-08-19T08:18:50.708Z,15.20
2022-08-19T08:21:59.027Z,15.85
2022-08-19T08:25:04.048Z,14.15
2022-08-19T08:28:11.379Z,18.70
2022-08-19T08:31:21.087Z,17.52
2022-08-19T08:34:23.781Z,17.25
2022-08-19T08:37:27.576Z,15.93
2022-08-19T08:40:33.064Z,18.25
2022-08-19T08:43:39.075Z,17.08
2022-08-19T08:46:47.549Z,17.05
2022-08-19T08:49:55.765Z,16.48
2022-08-19T08:53:00.510Z,17.88
2022-08-19T08:56:06.663Z,15.15
2022-08-19T08:59:14.555Z,18.13
2022-08-19T09:02:17.033Z,20.40
2022-08-19T09:05:26.127Z,17.40
2022-08-19T09:08:41.232Z,16.27
2022-08-19T09:11:58.540Z,19.08
2022-08-19T09:15:05.253Z,14.80
2022-08-19T09:18:15.247Z,16.63
2022-08-19T09:21:25.983Z,15.82
2022-08-19T09:24:34.459Z,13.50
2022-08-19T09:27:42.959Z,13.45
2022-08-19T09:30:56.561Z,14.05
2022-08-19T09:33:59.077Z,13.82
2022-08-19T09:37:02.022Z,12.32
2022-08-19T09:40:08.161Z,11.07
2022-08-19T09:43:13.236Z,13.15
2022-08-19T09:46:18.374Z,12.73
2022-08-19T09:49:22.702Z,11.23
2022-08-19T09:52:32.608Z,11.25
2022-08-19T09:55:36.767Z,10.35
2022-08-19T09:58:39.614Z,11.75
2022-08-19T10:01:42.583Z,10.18
2022-08-19T10:05:03.708Z,10.52
2022-08-19T10:08:06.216Z,11.68
2022-08-19T10:11:27.817Z,10.43
2022-08-19T10:14:40.387Z,10.68
2022-08-19T10:17:48.162Z,10.13
2022-08-19T10:21:09.388Z,10.52
2022-08-19T10:24:14.197Z,11.27
2022-08-19T10:27:17.986Z,10.55
2022-08-19T10:30:21.093Z,13.52
2022-08-19T10:33:39.044Z,10.68
2022-08-19T10:36:53.790Z,13.07
2022-08-19T10:39:58.791Z,15.77
2022-08-19T10:43:02.635Z,12.98
2022-08-19T10:46:13.741Z,12.13
2022-08-19T10:49:16.933Z,14.52
2022-08-19T10:52:34.192Z,11.68
2022-08-19T10:55:54.828Z,10.60
2022-08-19T10:58:59.460Z,12.68
2022-08-19T11:02:03.527Z,12.82
2022-08-19T11:05:12.633Z,11.90
2022-08-19T11:08:23.369Z,11.45
2022-08-19T11:11:26.419Z,10.87
2022-08-19T11:14:32.175Z,10.73
2022-08-19T11:17:37.070Z,12.98
2022-08-19T11:20:39.553Z,11.38
2022-08-19T11:23:42.450Z,11.07
2022-08-19T11:26:46.606Z,9.82
2022-08-19T11:29:50.452Z,11.95
2022-08-19T11:32:52.905Z,10.18
2022-08-19T11:35:55.573Z,17.20
2022-08-19T11:38:58.057Z,10.50
2022-08-19T11:42:02.096Z,10.45
2022-08-19T11:45:06.588Z,9.48
2022-08-19T11:48:09.639Z,10.68
2022-08-19T11:51:15.038Z,9.32
2022-08-19T11:54:18.139Z,9.40
2022-08-19T11:57:20.858Z,9.07
2022-08-19T12:00:24.845Z,10.15
2022-08-19T12:03:28.550Z,10.93
2022-08-19T12:06:34.991Z,8.13
2022-08-19T12:09:37.483Z,8.13
2022-08-19T12:12:46.643Z,11.00
2022-08-19T12:15:59.214Z,8.63
2022-08-19T12:19:05.072Z,11.07
2022-08-19T12:22:08.587Z,10.07
2022-08-19T12:25:13.254Z,9.80
2022-08-19T12:28:15.966Z,10.65
2022-08-19T12:31:20.634Z,13.55
2022-08-19T12:34:23.085Z,11.50
2022-08-19T12:37:25.576Z,11.25
2022-08-19T12:40:28.076Z,13.63
2022-08-19T12:43:31.343Z,10.85
2022-08-19T12:46:35.185Z,13.63
2022-08-19T12:49:53.867Z,11.65
2022-08-19T12:52:58.346Z,11.38
2022-08-19T12:56:01.279Z,13.38
2022-08-19T12:59:05.224Z,11.30
2022-08-19T13:02:09.977Z,11.35
2022-08-19T13:05:16.774Z,12.43
2022-08-19T13:08:19.358Z,10.35
2022-08-19T13:11:25.273Z,12.32
2022-08-19T13:14:27.811Z,12.30
2022-08-19T13:17:31.775Z,10.75
2022-08-19T13:20:34.417Z,14.70
2022-08-19T13:23:39.458Z,11.63
2022-08-19T13:26:42.022Z,11.38
2022-08-19T13:30:02.101Z,12.38
2022-08-19T13:33:16.482Z,11.43
2022-08-19T13:36:19.165Z,13.18
2022-08-19T13:39:23.934Z,12.68
2022-08-19T13:42:26.551Z,11.98
2022-08-19T13:45:30.855Z,11.85
2022-08-19T13:48:35.152Z,11.70
2022-08-19T13:51:37.622Z,12.18
2022-08-19T13:54:40.089Z,11.77
2022-08-19T13:57:43.209Z,12.38
2022-08-19T14:00:48.479Z,12.55
2022-08-19T14:03:52.907Z,14.88
2022-08-19T14:06:55.854Z,11.93
2022-08-19T14:09:58.351Z,13.23
2022-08-19T14:13:02.884Z,15.07
2022-08-19T14:16:09.554Z,13.95
2022-08-19T14:19:13.590Z,12.27
2022-08-19T14:22:21.972Z,12.27
2022-08-19T14:25:27.705Z,12.23
2022-08-19T14:28:31.315Z,12.93
2022-08-19T14:31:34.077Z,11.63
2022-08-19T14:34:39.330Z,11.80
2022-08-19T14:37:47.749Z,12.30
2022-08-19T14:40:53.034Z,12.00
2022-08-19T14:43:58.104Z,11.88
2022-08-19T14:47:01.147Z,12.07
2022-08-19T14:50:08.630Z,11.38
2022-08-19T14:53:13.474Z,10.65
2022-08-19T14:56:18.522Z,10.80
2022-08-19T14:59:22.113Z,11.70
2022-08-19T15:02:34.890Z,12.88
2022-08-19T15:05:39.323Z,12.18
2022-08-19T15:08:44.016Z,15.30
2022-08-19T15:11:46.934Z,11.23
2022-08-19T15:14:58.540Z,12.13
2022-08-19T15:18:04.619Z,11.52
2022-08-19T15:21:09.018Z,11.23
2022-08-19T15:24:12.102Z,11.02
2022-08-19T15:27:14.648Z,11.30
2022-08-19T15:30:23.295Z,12.15
2022-08-19T15:33:26.842Z,12.60
2022-08-19T15:36:30.933Z,12.85
2022-08-19T15:39:34.140Z,12.52
2022-08-19T15:42:38.313Z,15.40
2022-08-19T15:45:44.331Z,12.02
2022-08-19T15:48:56.196Z,12.82
2022-08-19T15:52:01.564Z,12.45
2022-08-19T15:55:07.529Z,13.10
2022-08-19T15:58:30.417Z,14.05
2022-08-19T16:01:50.789Z,14.15
2022-08-19T16:05:12.078Z,13.40
2022-08-19T16:08:16.075Z,12.80
2022-08-19T16:11:20.782Z,13.75
2022-08-19T16:14:23.637Z,13.18
2022-08-19T16:17:26.510Z,14.63
2022-08-19T16:20:29.111Z,13.48
2022-08-19T16:23:33.525Z,12.63
2022-08-19T16:26:36.141Z,13.85
2022-08-19T16:29:39.439Z,14.15
2022-08-19T16:32:44.638Z,13.45
2022-08-19T16:35:47.306Z,14.40
2022-08-19T16:39:02.415Z,13.50
2022-08-19T16:42:07.344Z,14.93
2022-08-19T16:45:10.800Z,13.98
2022-08-19T16:48:13.274Z,16.20
2022-08-19T16:51:17.245Z,14.35
2022-08-19T16:54:21.046Z,15.52
2022-08-19T16:57:24.710Z,14.60
2022-08-19T17:00:27.189Z,16.17
2022-08-19T17:03:35.785Z,15.68
2022-08-19T17:06:39.627Z,14.38
2022-08-19T17:09:43.445Z,15.40
2022-08-19T17:12:45.932Z,15.52
2022-08-19T17:15:49.324Z,15.05
2022-08-19T17:18:52.430Z,14.52
2022-08-19T17:21:56.874Z,14.98
2022-08-19T17:25:00.774Z,16.13
2022-08-19T17:28:08.051Z,17.08
2022-08-19T17:31:10.879Z,17.52
2022-08-19T17:34:13.383Z,20.48
2022-08-19T17:37:16.158Z,14.45
2022-08-19T17:40:23.946Z,15.80
2022-08-19T17:43:32.768Z,15.35
2022-08-19T17:46:37.469Z,15.40
2022-08-19T17:49:39.999Z,16.83
2022-08-19T17:52:42.916Z,15.50
2022-08-19T17:55:48.136Z,17.25
2022-08-19T17:59:00.760Z,16.38
2022-08-19T18:02:04.863Z,15.85
2022-08-19T18:05:07.928Z,16.67
2022-08-19T18:08:11.301Z,16.38
2022-08-19T18:11:15.124Z,19.67
2022-08-19T18:14:17.603Z,15.77
2022-08-19T18:17:22.992Z,18.77
2022-08-19T18:20:25.483Z,15.38
2022-08-19T18:23:44.626Z,15.98
2022-08-19T18:26:49.903Z,16.85
2022-08-19T18:29:52.455Z,16.48
2022-08-19T18:32:55.742Z,15.73
2022-08-19T18:35:58.243Z,14.82
2022-08-19T18:39:18.410Z,17.80
2022-08-19T18:42:40.042Z,17.35
2022-08-19T18:49:05.464Z,17.40
2022-08-19T18:52:08.085Z,16.17
2022-08-19T18:55:11.642Z,15.82
2022-08-19T18:58:15.436Z,17.83
2022-08-19T19:01:21.842Z,15.80
2022-08-19T19:04:27.326Z,16.65
2022-08-19T19:07:29.901Z,17.90
2022-08-19T19:10:32.541Z,16.58
2022-08-19T19:13:39.718Z,16.90
2022-08-19T19:16:45.722Z,17.50
2022-08-19T19:19:49.478Z,16.25
2022-08-19T19:22:52.009Z,17.67
2022-08-19T19:25:58.538Z,15.75
2022-08-19T19:29:02.362Z,18.63
2022-08-19T19:32:05.551Z,17.85
2022-08-19T19:35:09.836Z,15.73
2022-08-19T19:38:12.329Z,18.35
2022-08-19T19:41:17.054Z,17.48
2022-08-19T19:44:30.028Z,16.75
2022-08-19T19:47:33.727Z,16.63
2022-08-19T19:50:36.293Z,18.02
2022-08-19T19:53:39.056Z,18.40
2022-08-19T19:56:45.464Z,15.75
2022-08-19T19:59:51.564Z,17.15
2022-08-19T20:02:55.235Z,16.05
2022-08-19T20:05:59.217Z,14.60
2022-08-19T20:09:11.508Z,16.08
2022-08-19T20:12:15.244Z,16.33
2022-08-19T20:15:19.487Z,16.38
2022-08-19T20:18:22.179Z,14.23
2022-08-19T20:21:27.151Z,14.60
2022-08-19T20:24:33.675Z,15.10
2022-08-19T20:27:39.951Z,14.75
2022-08-19T20:30:46.554Z,16.08
2022-08-19T20:33:51.201Z,14.63
2022-08-19T20:36:53.693Z,15.70
2022-08-19T20:39:56.238Z,15.15
2022-08-19T20:42:58.784Z,14.75
2022-08-19T20:46:03.440Z,16.25
2022-08-19T20:49:06.021Z,16.05
2022-08-19T20:52:08.738Z,15.13
2022-08-19T20:55:13.334Z,16.35
2022-08-19T20:58:17.983Z,14.85
2022-08-19T21:01:22.016Z,15.43
2022-08-19T21:04:24.825Z,16.75
2022-08-19T21:07:38.833Z,16.30
2022-08-19T21:10:42.653Z,15.82
2022-08-19T21:13:45.167Z,16.33
2022-08-19T21:16:50.382Z,16.23
2022-08-19T21:19:52.866Z,17.90
2022-08-19T21:22:55.353Z,14.65
2022-08-19T21:25:59.689Z,16.15
2022-08-19T21:29:02.178Z,16.65
2022-08-19T21:32:06.573Z,15.30
2022-08-19T21:35:09.379Z,15.18
2022-08-19T21:38:11.903Z,14.65
2022-08-19T21:41:14.373Z,13.70
2022-08-19T21:44:16.849Z,13.68
2022-08-19T21:47:20.676Z,12.80
2022-08-19T21:50:25.842Z,13.82
2022-08-19T21:53:31.449Z,14.02
2022-08-19T21:56:38.055Z,13.10
2022-08-19T21:59:43.846Z,14.18
2022-08-19T22:02:48.252Z,15.95
2022-08-19T22:05:50.895Z,13.98
2022-08-19T22:08:55.457Z,13.07
2022-08-19T22:11:58.304Z,12.63
2022-08-19T22:15:01.770Z,15.85
2022-08-19T22:18:06.019Z,14.77
2022-08-19T22:21:11.883Z,13.23
2022-08-19T22:24:14.876Z,13.18
2022-08-19T22:27:17.630Z,13.13
2022-08-19T22:30:22.618Z,14.07
2022-08-19T22:33:27.779Z,16.20
2022-08-19T22:36:32.121Z,15.20
2022-08-19T22:39:35.120Z,13.90
2022-08-19T22:42:38.648Z,16.52
2022-08-19T22:45:41.341Z,13.85
2022-08-19T22:48:45.591Z,14.70
2022-08-19T22:52:05.399Z,13.93
2022-08-19T22:55:08.742Z,14.18
2022-08-19T22:58:11.257Z,16.23
2022-08-19T23:01:27.482Z,16.23
2022-08-19T23:04:34.917Z,20.05
2022-08-19T23:07:38.311Z,15.02
2022-08-19T23:10:40.827Z,15.70
2022-08-19T23:13:43.403Z,17.83
2022-08-19T23:16:50.979Z,16.65
2022-08-19T23:19:55.177Z,15.57
2022-08-19T23:22:58.832Z,15.82
2022-08-19T23:26:01.306Z,16.67
2022-08-19T23:29:22.460Z,15.82
2022-08-19T23:32:25.940Z,15.45
2022-08-19T23:35:34.692Z,14.40
2022-08-19T23:38:37.258Z,13.82
2022-08-19T23:41:39.745Z,13.77
2022-08-19T23:44:51.600Z,14.50
2022-08-19T23:47:55.695Z,17.48
2022-08-19T23:51:00.362Z,13.48
2022-08-19T23:54:02.851Z,13.15
2022-08-19T23:57:14.158Z,13.50
